createdAt,value
2022-09-10T00:01:33.898Z,18.47
2022-09-10T00:04:04.441Z,18.45
2022-09-10T00:06:35.217Z,18.39
2022-09-10T00:09:03.597Z,18.37
2022-09-10T00:11:35.183Z,18.45
2022-09-10T00:14:05.929Z,18.48
2022-09-10T00:16:34.500Z,18.49
2022-09-10T00:19:04.222Z,18.46
2022-09-10T00:21:32.234Z,18.40
2022-09-10T00:24:02.193Z,18.46
2022-09-10T00:26:34.515Z,18.45
2022-09-10T00:29:02.910Z,18.37
2022-09-10T00:31:32.711Z,18.40
2022-09-10T00:34:03.436Z,18.41
2022-09-10T00:36:36.619Z,18.44
2022-09-10T00:39:08.554Z,18.40
2022-09-10T00:41:40.365Z,18.44
2022-09-10T00:44:48.140Z,18.43
2022-09-10T00:47:20.772Z,18.37
2022-09-10T00:49:55.070Z,18.36
2022-09-10T00:52:24.430Z,18.37
2022-09-10T00:54:53.230Z,18.34
2022-09-10T00:57:24.815Z,18.38
2022-09-10T01:00:00.175Z,18.40
2022-09-10T01:02:29.615Z,18.28
2022-09-10T01:05:00.095Z,18.27
2022-09-10T01:07:30.180Z,18.34
2022-09-10T01:09:59.880Z,18.32
2022-09-10T01:13:13.110Z,18.27
2022-09-10T01:15:48.109Z,18.21
2022-09-10T01:18:31.533Z,18.14
2022-09-10T01:21:19.268Z,18.15
2022-09-10T01:24:15.258Z,18.16
2022-09-10T01:27:42.528Z,18.15
2022-09-10T01:30:17.987Z,18.22
2022-09-10T01:33:06.536Z,18.17
2022-09-10T01:35:43.132Z,18.19
2022-09-10T01:38:21.559Z,18.21
2022-09-10T01:40:50.319Z,18.19
2022-09-10T01:43:22.890Z,18.17
2022-09-10T01:46:13.280Z,18.25
2022-09-10T01:49:08.142Z,18.25
2022-09-10T01:51:52.300Z,18.20
2022-09-10T01:54:40.652Z,18.16
2022-09-10T01:57:20.539Z,18.18
2022-09-10T02:00:00.385Z,18.23
2022-09-10T02:02:35.008Z,18.19
2022-09-10T02:05:07.708Z,18.17
2022-09-10T02:07:38.172Z,18.17
2022-09-10T02:10:10.494Z,18.14
2022-09-10T02:12:46.726Z,18.12
2022-09-10T02:15:29.369Z,18.09
2022-09-10T02:18:09.486Z,18.07
2022-09-10T02:20:38.789Z,18.10
2022-09-10T02:23:09.166Z,18.09
2022-09-10T02:25:38.235Z,18.06
2022-09-10T02:28:07.177Z,18.11
2022-09-10T02:30:35.304Z,18.15
2022-09-10T02:33:03.447Z,18.12
2022-09-10T02:35:33.941Z,18.11
2022-09-10T02:38:01.955Z,18.08
2022-09-10T02:40:31.772Z,18.09
2022-09-10T02:42:59.889Z,18.12
2022-09-10T02:45:29.561Z,18.14
2022-09-10T02:47:57.683Z,18.15
2022-09-10T02:50:26.055Z,18.16
2022-09-10T02:52:55.438Z,18.22
2022-09-10T02:55:23.492Z,18.20
2022-09-10T02:57:51.594Z,18.21
2022-09-10T03:00:20.299Z,18.13
2022-09-10T03:02:48.917Z,18.11
2022-09-10T03:05:17.445Z,18.13
2022-09-10T03:07:46.092Z,18.17
2022-09-10T03:10:15.461Z,18.17
2022-09-10T03:12:43.962Z,18.10
2022-09-10T03:15:12.730Z,18.16
2022-09-10T03:17:40.739Z,18.12
2022-09-10T03:20:09.973Z,18.16
2022-09-10T03:22:38.277Z,18.16
2022-09-10T03:25:08.134Z,18.13
2022-09-10T03:27:38.269Z,18.14
2022-09-10T03:30:10.626Z,18.14
2022-09-10T03:32:38.829Z,18.12
2022-09-10T03:38:27.653Z,18.11
2022-09-10T03:40:56.633Z,18.07
2022-09-10T03:43:27.049Z,18.08
2022-09-10T03:45:55.424Z,18.02
2022-09-10T03:48:24.520Z,18.03
2022-09-10T03:50:52.877Z,18.00
2022-09-10T03:53:20.941Z,18.02
2022-09-10T03:55:51.942Z,17.98
2022-09-10T03:58:20.250Z,17.99
2022-09-10T04:00:49.732Z,17.99
2022-09-10T04:03:20.197Z,18.04
2022-09-10T04:05:48.633Z,17.99
2022-09-10T04:08:17.280Z,17.99
2022-09-10T04:10:46.261Z,17.98
2022-09-10T04:13:14.903Z,18.04
2022-09-10T04:15:46.041Z,18.02
2022-09-10T04:18:15.745Z,17.97
2022-09-10T04:20:47.921Z,17.97
2022-09-10T04:23:17.485Z,17.99
2022-09-10T04:25:47.593Z,18.03
2022-09-10T04:28:16.018Z,17.97
2022-09-10T04:30:47.144Z,17.96
2022-09-10T04:33:17.555Z,17.95
2022-09-10T04:35:46.633Z,17.89
2022-09-10T04:38:14.877Z,17.91
2022-09-10T04:40:47.656Z,17.96
2022-09-10T04:43:15.832Z,17.96
2022-09-10T04:45:45.038Z,17.93
2022-09-10T04:48:13.694Z,17.91
2022-09-10T04:50:59.392Z,17.97
2022-09-10T04:53:38.560Z,17.91
2022-09-10T04:56:07.661Z,17.93
2022-09-10T04:58:39.296Z,18.01
2022-09-10T05:01:08.198Z,18.00
2022-09-10T05:03:36.346Z,17.95
2022-09-10T05:06:06.690Z,18.00
2022-09-10T05:08:36.133Z,17.96
2022-09-10T05:11:06.300Z,18.02
2022-09-10T05:13:34.978Z,18.03
2022-09-10T05:16:03.631Z,18.02
2022-09-10T05:18:34.004Z,18.02
2022-09-10T05:21:02.291Z,18.00
2022-09-10T05:23:31.958Z,18.02
2022-09-10T05:26:01.945Z,18.01
2022-09-10T05:28:31.534Z,18.04
2022-09-10T05:30:59.869Z,18.07
2022-09-10T05:33:29.719Z,18.07
2022-09-10T05:35:58.123Z,18.05
2022-09-10T05:38:26.626Z,18.01
2022-09-10T05:40:57.087Z,18.01
2022-09-10T05:43:25.291Z,18.03
2022-09-10T05:45:53.415Z,18.03
2022-09-10T05:48:22.433Z,18.04
2022-09-10T05:50:50.849Z,18.00
2022-09-10T05:53:19.087Z,18.02
2022-09-10T05:55:47.157Z,18.04
2022-09-10T05:58:18.247Z,18.04
2022-09-10T06:00:50.551Z,17.99
2022-09-10T06:03:19.856Z,18.04
2022-09-10T06:05:51.282Z,18.04
2022-09-10T06:08:24.160Z,18.09
2022-09-10T06:10:58.679Z,18.08
2022-09-10T06:13:30.418Z,18.16
2022-09-10T06:16:00.262Z,18.18
2022-09-10T06:18:30.063Z,18.14
2022-09-10T06:21:07.659Z,18.17
2022-09-10T06:23:36.432Z,18.16
2022-09-10T06:26:08.126Z,18.22
2022-09-10T06:28:39.871Z,18.31
2022-09-10T06:31:11.911Z,18.28
2022-09-10T06:33:40.001Z,18.29
2022-09-10T06:36:08.556Z,18.29
2022-09-10T06:38:38.956Z,18.25
2022-09-10T06:41:12.484Z,18.24
2022-09-10T06:43:49.555Z,18.21
2022-09-10T06:47:01.677Z,18.25
2022-09-10T06:49:17.372Z,18.20
2022-09-10T06:51:49.105Z,18.20
2022-09-10T06:54:18.809Z,18.30
2022-09-10T06:56:49.026Z,18.41
2022-09-10T06:59:19.044Z,18.41
2022-09-10T07:01:49.856Z,18.31
2022-09-10T07:04:19.435Z,18.40
2022-09-10T07:06:47.670Z,18.46
2022-09-10T07:09:17.474Z,18.50
2022-09-10T07:12:00.236Z,18.57
2022-09-10T07:14:33.213Z,18.58
2022-09-10T07:17:05.013Z,18.67
2022-09-10T07:19:36.256Z,18.72
2022-09-10T07:22:06.977Z,18.76
2022-09-10T07:24:35.857Z,18.77
2022-09-10T07:27:11.971Z,18.79
2022-09-10T07:29:44.313Z,18.87
2022-09-10T07:32:16.353Z,18.82
2022-09-10T07:34:44.448Z,18.84
2022-09-10T07:37:15.541Z,18.88
2022-09-10T07:39:43.783Z,18.91
2022-09-10T07:42:12.448Z,19.02
2022-09-10T07:44:41.926Z,18.98
2022-09-10T07:47:11.317Z,18.98
2022-09-10T07:49:39.718Z,19.13
2022-09-10T07:52:09.081Z,19.18
2022-09-10T07:54:44.833Z,19.10
2022-09-10T07:57:13.000Z,19.27
2022-09-10T07:59:41.594Z,19.40
2022-09-10T08:02:15.284Z,19.46
2022-09-10T08:04:46.915Z,19.56
2022-09-10T08:07:17.291Z,19.41
2022-09-10T08:09:45.454Z,19.47
2022-09-10T08:12:17.652Z,19.58
2022-09-10T08:14:47.484Z,19.60
2022-09-10T08:17:17.993Z,19.63
2022-09-10T08:19:46.985Z,19.72
2022-09-10T08:22:15.856Z,19.84
2022-09-10T08:24:51.106Z,19.92
2022-09-10T08:27:19.426Z,19.95
2022-09-10T08:29:49.234Z,20.11
2022-09-10T08:32:18.647Z,20.14
2022-09-10T08:34:46.808Z,20.19
2022-09-10T08:37:16.167Z,20.19
2022-09-10T08:39:45.060Z,20.26
2022-09-10T08:42:21.611Z,20.28
2022-09-10T08:44:55.145Z,20.24
2022-09-10T08:47:37.555Z,20.15
2022-09-10T08:50:19.059Z,20.21
2022-09-10T08:52:53.106Z,20.23
2022-09-10T08:55:30.522Z,20.26
2022-09-10T08:58:04.732Z,20.27
2022-09-10T09:00:37.918Z,20.26
2022-09-10T09:03:22.481Z,20.24
2022-09-10T09:05:55.527Z,20.15
2022-09-10T09:08:34.280Z,20.13
2022-09-10T09:11:17.745Z,20.13
2022-09-10T09:14:05.848Z,20.13
2022-09-10T09:16:59.622Z,20.08
2022-09-10T09:19:35.292Z,20.05
2022-09-10T09:22:18.116Z,20.01
2022-09-10T09:24:57.352Z,19.91
2022-09-10T09:27:31.175Z,19.93
2022-09-10T09:30:04.070Z,19.98
2022-09-10T09:32:41.770Z,20.02
2022-09-10T09:35:26.042Z,20.16
2022-09-10T09:38:13.697Z,20.15
2022-09-10T09:40:48.105Z,20.20
2022-09-10T09:43:29.736Z,20.11
2022-09-10T09:45:58.357Z,20.11
2022-09-10T09:48:38.636Z,20.04
2022-09-10T09:51:12.300Z,20.05
2022-09-10T09:53:44.038Z,20.09
2022-09-10T09:56:22.396Z,20.14
2022-09-10T09:58:52.026Z,20.11
2022-09-10T10:01:24.073Z,20.11
2022-09-10T10:04:01.639Z,20.17
2022-09-10T10:06:34.571Z,20.07
2022-09-10T10:09:07.076Z,20.07
2022-09-10T10:11:46.476Z,20.09
2022-09-10T10:14:35.158Z,20.10
2022-09-10T10:17:03.403Z,20.12
2022-09-10T10:19:36.518Z,20.11
2022-09-10T10:22:27.779Z,19.99
2022-09-10T10:24:55.850Z,20.03
2022-09-10T10:27:32.713Z,19.88
2022-09-10T10:30:06.090Z,20.00
2022-09-10T10:32:44.583Z,20.25
2022-09-10T10:35:44.167Z,20.38
2022-09-10T10:38:34.425Z,20.47
2022-09-10T10:41:29.647Z,20.46
2022-09-10T10:44:28.910Z,20.51
2022-09-10T10:47:20.662Z,20.61
2022-09-10T10:50:01.484Z,20.55
2022-09-10T10:52:41.441Z,20.52
2022-09-10T10:55:23.188Z,20.58
2022-09-10T10:58:20.200Z,20.47
2022-09-10T11:00:55.292Z,20.42
2022-09-10T11:03:30.054Z,20.47
2022-09-10T11:06:05.164Z,20.52
2022-09-10T11:08:41.858Z,20.55
2022-09-10T11:11:18.130Z,20.67
2022-09-10T11:13:52.458Z,20.85
2022-09-10T11:16:26.653Z,20.88
2022-09-10T11:19:03.098Z,20.96
2022-09-10T11:21:38.551Z,20.87
2022-09-10T11:24:16.976Z,20.81
2022-09-10T11:26:54.025Z,20.78
2022-09-10T11:29:38.761Z,20.69
2022-09-10T11:32:15.885Z,20.65
2022-09-10T11:34:58.701Z,20.56
2022-09-10T11:37:47.793Z,20.53
2022-09-10T11:40:24.353Z,20.53
2022-09-10T11:42:59.436Z,20.47
2022-09-10T11:45:40.524Z,20.64
2022-09-10T11:48:19.536Z,20.64
2022-09-10T11:50:54.334Z,20.72
2022-09-10T11:53:24.745Z,20.74
2022-09-10T11:56:19.821Z,20.71
2022-09-10T11:59:05.802Z,20.77
2022-09-10T12:02:02.454Z,20.70
2022-09-10T12:04:47.725Z,20.79
2022-09-10T12:07:31.477Z,20.72
2022-09-10T12:10:17.107Z,20.85
2022-09-10T12:12:50.146Z,20.93
2022-09-10T12:15:24.632Z,21.10
2022-09-10T12:17:58.600Z,21.20
2022-09-10T12:20:33.160Z,21.20
2022-09-10T12:23:01.982Z,21.16
2022-09-10T12:25:34.958Z,21.26
2022-09-10T12:28:07.950Z,21.33
2022-09-10T12:31:03.767Z,21.22
2022-09-10T12:34:16.887Z,21.17
2022-09-10T12:37:24.739Z,20.94
2022-09-10T12:40:47.352Z,20.94
2022-09-10T12:43:54.043Z,20.84
2022-09-10T12:46:24.340Z,20.84
2022-09-10T12:49:11.252Z,20.97
2022-09-10T12:51:57.644Z,21.20
2022-09-10T12:54:46.978Z,21.28
2022-09-10T12:57:31.001Z,21.31
2022-09-10T13:00:22.007Z,21.34
2022-09-10T13:03:09.434Z,21.23
2022-09-10T13:05:51.498Z,21.26
2022-09-10T13:08:25.721Z,21.29
2022-09-10T13:11:16.432Z,21.31
2022-09-10T13:13:52.327Z,21.33
2022-09-10T13:16:38.193Z,21.32
2022-09-10T13:19:53.779Z,21.19
2022-09-10T13:22:58.028Z,21.24
2022-09-10T13:25:39.989Z,20.97
2022-09-10T13:29:02.821Z,20.91
2022-09-10T13:31:35.825Z,20.94
2022-09-10T13:34:31.527Z,21.00
2022-09-10T13:37:24.894Z,21.06
2022-09-10T13:40:33.577Z,20.99
2022-09-10T13:43:26.532Z,21.04
2022-09-10T13:46:00.669Z,21.02
2022-09-10T13:48:35.552Z,20.75
2022-09-10T13:51:16.183Z,20.54
2022-09-10T13:53:49.023Z,20.45
2022-09-10T13:56:24.133Z,20.38
2022-09-10T13:58:56.564Z,20.17
2022-09-10T14:01:50.471Z,20.07
2022-09-10T14:04:27.627Z,20.17
2022-09-10T14:07:02.794Z,20.01
2022-09-10T14:09:32.979Z,20.11
2022-09-10T14:12:04.452Z,20.09
2022-09-10T14:14:40.415Z,20.07
2022-09-10T14:17:13.172Z,19.99
2022-09-10T14:19:49.346Z,20.11
2022-09-10T14:22:22.151Z,20.04
2022-09-10T14:24:55.128Z,20.10
2022-09-10T14:27:26.916Z,20.14
2022-09-10T14:29:57.374Z,20.18
2022-09-10T14:32:36.271Z,20.24
2022-09-10T14:35:40.713Z,20.32
2022-09-10T14:38:26.850Z,20.37
2022-09-10T14:41:04.315Z,20.37
2022-09-10T14:43:38.086Z,20.40
2022-09-10T14:46:08.784Z,20.45
2022-09-10T14:48:40.940Z,20.44
2022-09-10T14:51:18.531Z,20.50
2022-09-10T14:53:51.391Z,20.48
2022-09-10T14:56:26.502Z,20.49
2022-09-10T14:59:00.898Z,20.51
2022-09-10T15:01:30.507Z,20.55
2022-09-10T15:03:59.763Z,20.46
2022-09-10T15:06:27.976Z,20.41
2022-09-10T15:08:57.058Z,20.27
2022-09-10T15:11:29.202Z,20.31
2022-09-10T15:13:59.323Z,20.25
2022-09-10T15:16:27.959Z,20.23
2022-09-10T15:18:58.212Z,20.25
2022-09-10T15:21:26.645Z,20.21
2022-09-10T15:23:54.902Z,20.17
2022-09-10T15:26:23.441Z,20.14
2022-09-10T15:28:55.740Z,20.06
2022-09-10T15:31:32.034Z,20.07
2022-09-10T15:34:00.622Z,19.94
2022-09-10T15:36:28.853Z,19.95
2022-09-10T15:38:59.587Z,19.81
2022-09-10T15:41:28.446Z,19.74
2022-09-10T15:43:58.130Z,19.69
2022-09-10T15:46:26.517Z,19.69
2022-09-10T15:48:56.859Z,19.73
2022-09-10T15:51:25.459Z,19.69
2022-09-10T15:53:55.406Z,19.70
2022-09-10T15:56:26.977Z,19.66
2022-09-10T15:58:58.612Z,19.63
2022-09-10T16:01:29.146Z,19.60
2022-09-10T16:04:02.674Z,19.66
2022-09-10T16:06:34.608Z,19.56
2022-09-10T16:09:06.727Z,19.41
2022-09-10T16:11:37.366Z,19.33
2022-09-10T16:14:11.974Z,19.41
2022-09-10T16:16:41.381Z,19.25
2022-09-10T16:19:12.869Z,19.23
2022-09-10T16:21:41.488Z,19.25
2022-09-10T16:24:10.862Z,19.29
2022-09-10T16:26:42.368Z,19.29
2022-09-10T16:29:16.829Z,19.24
2022-09-10T16:31:46.021Z,19.24
2022-09-10T16:34:18.393Z,19.32
2022-09-10T16:36:48.819Z,19.30
2022-09-10T16:39:19.366Z,19.22
2022-09-10T16:41:49.769Z,19.16
2022-09-10T16:44:20.214Z,19.12
2022-09-10T16:46:49.531Z,19.16
2022-09-10T16:49:19.782Z,19.17
2022-09-10T16:51:49.939Z,19.14
2022-09-10T16:54:20.066Z,19.16
2022-09-10T16:56:49.360Z,19.13
2022-09-10T16:59:21.404Z,19.14
2022-09-10T17:01:52.037Z,19.10
2022-09-10T17:04:27.762Z,19.04
2022-09-10T17:06:57.011Z,19.01
2022-09-10T17:09:25.764Z,18.98
2022-09-10T17:11:54.151Z,18.95
2022-09-10T17:14:24.443Z,18.87
2022-09-10T17:16:53.105Z,18.96
2022-09-10T17:19:24.022Z,19.01
2022-09-10T17:21:55.511Z,18.98
2022-09-10T17:24:26.703Z,19.04
2022-09-10T17:26:56.033Z,18.89
2022-09-10T17:29:26.860Z,18.90
2022-09-10T17:31:57.295Z,18.89
2022-09-10T17:34:26.586Z,18.88
2022-09-10T17:36:55.001Z,18.86
2022-09-10T17:39:27.988Z,18.96
2022-09-10T17:41:56.358Z,18.92
2022-09-10T17:44:26.958Z,18.99
2022-09-10T17:46:55.523Z,18.98
2022-09-10T17:49:24.438Z,19.01
2022-09-10T17:51:53.266Z,18.98
2022-09-10T17:54:21.679Z,18.97
2022-09-10T17:56:49.820Z,18.90
2022-09-10T17:59:17.883Z,18.94
2022-09-10T18:01:47.928Z,18.91
2022-09-10T18:04:16.124Z,18.94
2022-09-10T18:06:47.843Z,18.91
2022-09-10T18:09:17.763Z,18.89
2022-09-10T18:11:45.957Z,18.96
2022-09-10T18:14:18.555Z,18.93
2022-09-10T18:16:48.090Z,18.99
2022-09-10T18:19:18.804Z,18.97
2022-09-10T18:21:49.124Z,18.94
2022-09-10T18:24:22.436Z,18.95
2022-09-10T18:26:53.794Z,18.87
2022-09-10T18:29:24.694Z,18.90
2022-09-10T18:31:56.889Z,18.90
2022-09-10T18:34:27.647Z,18.85
2022-09-10T18:36:59.154Z,18.82
2022-09-10T18:39:29.158Z,18.80
2022-09-10T18:41:59.022Z,18.81
2022-09-10T18:44:29.976Z,18.83
2022-09-10T18:46:59.463Z,18.81
2022-09-10T18:49:28.113Z,18.76
2022-09-10T18:51:58.057Z,18.81
2022-09-10T18:54:29.116Z,18.80
2022-09-10T18:56:58.046Z,18.75
2022-09-10T18:59:27.258Z,18.75
2022-09-10T19:01:56.819Z,18.78
2022-09-10T19:04:28.694Z,18.79
2022-09-10T19:06:58.276Z,18.78
2022-09-10T19:09:28.629Z,18.75
2022-09-10T19:11:59.130Z,18.73
2022-09-10T19:14:29.951Z,18.78
2022-09-10T19:17:00.373Z,18.82
2022-09-10T19:19:31.740Z,18.80
2022-09-10T19:22:07.064Z,18.80
2022-09-10T19:24:54.931Z,18.79
2022-09-10T19:27:24.650Z,18.81
2022-09-10T19:29:53.779Z,18.76
2022-09-10T19:32:22.121Z,18.69
2022-09-10T19:34:52.449Z,18.74
2022-09-10T19:37:20.807Z,18.75
2022-09-10T19:39:49.187Z,18.76
2022-09-10T19:42:17.345Z,18.72
2022-09-10T19:44:45.437Z,18.70
2022-09-10T19:47:13.679Z,18.71
2022-09-10T19:49:41.842Z,18.62
2022-09-10T19:52:12.409Z,18.65
2022-09-10T19:54:40.557Z,18.67
2022-09-10T19:57:08.735Z,18.67
2022-09-10T19:59:36.796Z,18.61
2022-09-10T20:02:05.182Z,18.57
2022-09-10T20:04:33.854Z,18.65
2022-09-10T20:07:02.047Z,18.59
2022-09-10T20:09:31.537Z,18.68
2022-09-10T20:11:59.719Z,18.62
2022-09-10T20:14:28.374Z,18.61
2022-09-10T20:16:56.859Z,18.53
2022-09-10T20:19:24.993Z,18.48
2022-09-10T20:21:53.025Z,18.57
2022-09-10T20:24:22.082Z,18.59
2022-09-10T20:26:51.545Z,18.66
2022-09-10T20:29:20.466Z,18.51
2022-09-10T20:31:49.205Z,18.55
2022-09-10T20:34:20.553Z,18.55
2022-09-10T20:36:51.255Z,18.55
2022-09-10T20:39:25.117Z,18.54
2022-09-10T20:41:54.698Z,18.43
2022-09-10T20:44:22.954Z,18.41
2022-09-10T20:46:51.301Z,18.50
2022-09-10T20:49:19.602Z,18.47
2022-09-10T20:51:48.256Z,18.37
2022-09-10T20:54:19.097Z,18.38
2022-09-10T20:56:47.806Z,18.38
2022-09-10T20:59:19.305Z,18.36
2022-09-10T21:01:50.632Z,18.40
2022-09-10T21:04:19.831Z,18.36
2022-09-10T21:06:48.012Z,18.43
2022-09-10T21:09:16.254Z,18.37
2022-09-10T21:11:44.438Z,18.41
2022-09-10T21:14:13.455Z,18.38
2022-09-10T21:16:43.623Z,18.43
2022-09-10T21:19:14.958Z,18.25
2022-09-10T21:21:45.635Z,18.27
2022-09-10T21:24:17.236Z,18.37
2022-09-10T21:26:46.422Z,18.36
2022-09-10T21:29:17.441Z,18.26
2022-09-10T21:31:47.059Z,18.20
2022-09-10T21:34:15.477Z,18.12
2022-09-10T21:36:43.944Z,18.09
2022-09-10T21:39:17.401Z,18.24
2022-09-10T21:41:47.753Z,18.22
2022-09-10T21:44:19.801Z,18.26
2022-09-10T21:46:50.435Z,18.28
2022-09-10T21:49:20.275Z,18.26
2022-09-10T21:51:48.822Z,18.26
2022-09-10T21:54:20.660Z,18.27
2022-09-10T21:56:49.214Z,18.22
2022-09-10T21:59:17.562Z,18.22
2022-09-10T22:01:47.781Z,18.31
2022-09-10T22:04:22.223Z,18.35
2022-09-10T22:06:51.825Z,18.31
2022-09-10T22:09:21.218Z,18.38
2022-09-10T22:11:52.025Z,18.30
2022-09-10T22:14:22.576Z,18.32
2022-09-10T22:16:51.607Z,18.34
2022-09-10T22:19:24.705Z,18.34
2022-09-10T22:21:54.064Z,18.30
2022-09-10T22:24:22.566Z,18.35
2022-09-10T22:26:50.629Z,18.30
2022-09-10T22:29:20.897Z,18.22
2022-09-10T22:31:49.609Z,18.34
2022-09-10T22:34:20.885Z,18.31
2022-09-10T22:36:50.420Z,18.33
2022-09-10T22:39:20.308Z,18.31
2022-09-10T22:41:49.943Z,18.40
2022-09-10T22:44:19.832Z,18.38
2022-09-10T22:46:48.717Z,18.31
2022-09-10T22:49:17.297Z,18.24
2022-09-10T22:51:45.948Z,18.19
2022-09-10T22:54:16.557Z,18.26
2022-09-10T22:56:45.344Z,18.30
2022-09-10T22:59:14.858Z,18.38
2022-09-10T23:01:47.456Z,18.26
2022-09-10T23:04:16.551Z,18.28
2022-09-10T23:06:44.745Z,18.28
2022-09-10T23:09:16.399Z,18.27
2022-09-10T23:11:45.627Z,18.31
2022-09-10T23:14:17.740Z,18.31
2022-09-10T23:16:48.585Z,18.32
2022-09-10T23:19:19.345Z,18.38
2022-09-10T23:21:49.896Z,18.27
2022-09-10T23:24:22.468Z,18.19
2022-09-10T23:26:51.064Z,18.18
2022-09-10T23:29:23.003Z,18.31
2022-09-10T23:31:53.264Z,18.32
2022-09-10T23:34:22.423Z,18.44
2022-09-10T23:36:51.141Z,18.38
2022-09-10T23:39:22.863Z,18.20
2022-09-10T23:41:53.036Z,18.28
2022-09-10T23:44:21.767Z,18.27
2022-09-10T23:46:50.671Z,18.21
2022-09-10T23:49:18.843Z,18.32
2022-09-10T23:51:47.137Z,18.29
2022-09-10T23:54:15.234Z,18.29
2022-09-10T23:56:45.283Z,18.18
2022-09-10T23:59:15.308Z,18.26
